createdAt,value
2019-05-10T00:00:17.695Z,27.83
2019-05-10T00:03:05.411Z,30.67
2019-05-10T00:05:53.734Z,28.20
2019-05-10T00:08:41.801Z,33.13
2019-05-10T00:11:21.736Z,29.27
2019-05-10T00:13:56.456Z,28.50
2019-05-10T00:16:27.353Z,32.10
2019-05-10T00:18:57.510Z,28.97
2019-05-10T00:21:27.629Z,28.17
2019-05-10T00:23:57.802Z,29.27
2019-05-10T00:26:27.966Z,24.13
2019-05-10T00:28:58.153Z,29.20
2019-05-10T00:31:28.418Z,32.07
2019-05-10T00:33:58.431Z,27.63
2019-05-10T00:36:28.570Z,25.13
2019-05-10T00:38:58.507Z,27.77
2019-05-10T00:41:28.831Z,25.93
2019-05-10T00:43:58.895Z,27.27
2019-05-10T00:46:29.052Z,32.03
2019-05-10T00:48:59.085Z,26.90
2019-05-10T00:51:29.246Z,26.43
2019-05-10T00:53:59.368Z,25.77
2019-05-10T00:56:29.497Z,27.63
2019-05-10T00:58:59.448Z,26.33
2019-05-10T01:01:29.521Z,27.37
2019-05-10T01:03:59.627Z,27.17
2019-05-10T01:06:29.647Z,25.83
2019-05-10T01:08:59.636Z,24.70
2019-05-10T01:11:29.645Z,28.97
2019-05-10T01:13:59.585Z,24.27
2019-05-10T01:16:29.918Z,28.90
2019-05-10T01:19:00.034Z,29.30
2019-05-10T01:21:30.363Z,26.50
2019-05-10T01:24:00.467Z,25.70
2019-05-10T01:26:33.558Z,27.13
2019-05-10T01:29:03.597Z,30.00
2019-05-10T01:31:33.961Z,26.80
2019-05-10T01:34:04.033Z,29.10
2019-05-10T01:36:34.147Z,27.17
2019-05-10T01:39:05.327Z,27.07
2019-05-10T01:41:35.498Z,30.40
2019-05-10T01:44:05.588Z,26.03
2019-05-10T01:46:35.572Z,26.50
2019-05-10T01:49:05.739Z,27.57
2019-05-10T01:51:35.976Z,31.30
2019-05-10T01:54:06.089Z,31.43
2019-05-10T01:56:36.915Z,31.27
2019-05-10T01:59:06.939Z,29.80
2019-05-10T02:01:37.055Z,28.00
2019-05-10T02:04:07.285Z,29.10
2019-05-10T02:06:37.396Z,27.57
2019-05-10T02:09:08.488Z,29.83
2019-05-10T02:11:38.168Z,29.97
2019-05-10T02:14:07.658Z,30.93
2019-05-10T02:16:38.163Z,31.40
2019-05-10T02:19:08.297Z,27.67
2019-05-10T02:21:39.432Z,28.30
2019-05-10T02:24:09.546Z,29.30
2019-05-10T02:26:39.665Z,23.10
2019-05-10T02:29:09.688Z,29.37
2019-05-10T02:31:39.497Z,30.43
2019-05-10T02:34:09.007Z,27.37
2019-05-10T02:36:39.015Z,30.43
2019-05-10T02:39:09.751Z,32.27
2019-05-10T02:41:39.577Z,30.30
2019-05-10T02:44:09.539Z,26.43
2019-05-10T02:46:40.209Z,32.73
2019-05-10T02:49:11.200Z,34.53
2019-05-10T02:51:41.271Z,30.13
2019-05-10T02:54:11.361Z,32.20
2019-05-10T02:56:42.038Z,31.43
2019-05-10T02:59:13.401Z,32.30
2019-05-10T03:01:44.419Z,33.67
2019-05-10T03:04:15.636Z,30.93
2019-05-10T03:06:45.650Z,30.20
2019-05-10T03:09:15.756Z,32.07
2019-05-10T03:11:47.528Z,29.87
2019-05-10T03:14:20.418Z,33.97
2019-05-10T03:16:52.088Z,29.07
2019-05-10T03:19:22.818Z,33.20
2019-05-10T03:21:55.875Z,30.30
2019-05-10T03:24:27.824Z,36.60
2019-05-10T03:26:58.129Z,48.27
2019-05-10T03:29:28.162Z,53.17
2019-05-10T03:31:58.415Z,51.67
2019-05-10T03:34:28.653Z,57.50
2019-05-10T03:37:00.579Z,75.17
2019-05-10T03:39:30.860Z,71.10
2019-05-10T03:42:00.779Z,51.80
2019-05-10T03:44:30.854Z,48.90
2019-05-10T03:47:01.206Z,40.33
2019-05-10T03:49:31.387Z,37.57
2019-05-10T03:52:01.592Z,32.90
2019-05-10T03:54:32.760Z,35.93
2019-05-10T03:57:13.282Z,30.50
2019-05-10T03:59:35.022Z,34.70
2019-05-10T04:02:05.147Z,30.50
2019-05-10T04:04:35.241Z,34.83
2019-05-10T04:07:05.264Z,32.13
2019-05-10T04:09:35.305Z,31.23
2019-05-10T04:12:05.407Z,30.87
2019-05-10T04:14:35.341Z,31.63
2019-05-10T04:17:05.327Z,30.07
2019-05-10T04:19:35.650Z,32.30
2019-05-10T04:22:05.664Z,33.07
2019-05-10T04:24:36.630Z,32.17
2019-05-10T04:27:06.920Z,32.20
2019-05-10T04:29:37.037Z,32.47
2019-05-10T04:32:07.050Z,30.93
2019-05-10T04:34:37.181Z,34.87
2019-05-10T04:37:07.298Z,30.20
2019-05-10T04:39:38.540Z,33.40
2019-05-10T04:42:08.552Z,31.97
2019-05-10T04:44:38.581Z,34.13
2019-05-10T04:47:08.549Z,30.93
2019-05-10T04:49:38.712Z,32.53
2019-05-10T04:52:09.652Z,32.40
2019-05-10T04:54:39.748Z,33.03
2019-05-10T04:57:09.776Z,31.23
2019-05-10T04:59:39.906Z,30.90
2019-05-10T05:02:09.903Z,30.33
2019-05-10T05:04:40.029Z,26.57
2019-05-10T05:07:10.029Z,33.80
2019-05-10T05:09:40.167Z,32.03
2019-05-10T05:12:10.380Z,28.43
2019-05-10T05:14:40.377Z,32.07
2019-05-10T05:17:10.415Z,32.60
2019-05-10T05:19:40.975Z,31.67
2019-05-10T05:22:13.230Z,31.20
2019-05-10T05:24:42.781Z,32.97
2019-05-10T05:27:12.724Z,32.90
2019-05-10T05:29:42.947Z,33.40
2019-05-10T05:32:13.454Z,30.20
2019-05-10T05:34:43.686Z,31.50
2019-05-10T05:37:13.807Z,28.87
2019-05-10T05:39:44.022Z,33.77
2019-05-10T05:42:13.939Z,29.67
2019-05-10T05:44:44.186Z,33.47
2019-05-10T05:47:14.050Z,31.43
2019-05-10T05:49:44.090Z,30.87
2019-05-10T05:52:14.137Z,29.37
2019-05-10T05:54:44.211Z,35.50
2019-05-10T05:57:14.345Z,32.87
2019-05-10T05:59:44.454Z,33.67
2019-05-10T06:02:14.489Z,31.00
2019-05-10T06:04:46.296Z,35.33
2019-05-10T06:07:16.461Z,31.63
2019-05-10T06:09:46.573Z,32.53
2019-05-10T06:12:17.511Z,31.60
2019-05-10T06:14:49.940Z,35.27
2019-05-10T06:17:23.690Z,35.53
2019-05-10T06:19:51.137Z,33.97
2019-05-10T06:22:22.193Z,35.97
2019-05-10T06:24:53.763Z,33.87
2019-05-10T06:27:23.544Z,35.27
2019-05-10T06:29:53.359Z,33.50
2019-05-10T06:32:23.574Z,33.50
2019-05-10T06:34:53.112Z,36.63
2019-05-10T06:37:23.121Z,37.43
2019-05-10T06:39:53.075Z,38.70
2019-05-10T06:42:23.124Z,35.37
2019-05-10T06:44:53.146Z,35.00
2019-05-10T06:47:23.371Z,34.80
2019-05-10T06:49:53.580Z,37.23
2019-05-10T06:52:27.745Z,39.47
2019-05-10T06:54:58.258Z,38.70
2019-05-10T06:57:26.487Z,35.47
2019-05-10T07:00:05.310Z,37.67
2019-05-10T07:02:32.411Z,33.87
2019-05-10T07:04:59.818Z,37.43
2019-05-10T07:07:43.269Z,35.87
2019-05-10T07:10:12.226Z,37.80
2019-05-10T07:12:32.806Z,37.97
2019-05-10T07:15:05.224Z,41.23
2019-05-10T07:17:41.399Z,37.63
2019-05-10T07:20:08.217Z,35.90
2019-05-10T07:22:39.449Z,42.80
2019-05-10T07:25:09.570Z,35.57
2019-05-10T07:27:39.712Z,35.07
2019-05-10T07:30:09.939Z,35.57
2019-05-10T07:32:40.036Z,37.83
2019-05-10T07:35:10.296Z,36.03
2019-05-10T07:37:40.674Z,48.93
2019-05-10T07:40:11.207Z,64.80
2019-05-10T07:42:45.665Z,41.43
2019-05-10T07:45:13.119Z,30.97
2019-05-10T07:47:43.286Z,31.37
2019-05-10T07:50:13.506Z,34.90
2019-05-10T07:52:45.621Z,33.37
2019-05-10T07:55:17.891Z,31.00
2019-05-10T07:57:46.833Z,32.00
2019-05-10T08:00:17.008Z,23.70
2019-05-10T08:02:51.235Z,23.13
2019-05-10T08:05:18.626Z,20.37
2019-05-10T08:07:49.503Z,24.20
2019-05-10T08:10:21.495Z,25.03
2019-05-10T08:12:51.955Z,24.30
2019-05-10T08:15:24.639Z,24.00
2019-05-10T08:17:54.016Z,24.40
2019-05-10T08:20:41.093Z,24.47
2019-05-10T08:22:55.997Z,18.10
2019-05-10T08:25:29.106Z,19.70
2019-05-10T08:27:57.612Z,22.40
2019-05-10T08:30:49.915Z,21.63
2019-05-10T08:33:14.390Z,19.67
2019-05-10T08:35:46.110Z,17.37
2019-05-10T08:38:14.232Z,18.17
2019-05-10T08:40:44.222Z,17.20
2019-05-10T08:43:16.631Z,18.60
2019-05-10T08:45:49.434Z,17.90
2019-05-10T08:48:16.968Z,20.60
2019-05-10T08:50:54.266Z,20.07
2019-05-10T08:53:18.092Z,22.90
2019-05-10T08:55:48.328Z,17.57
2019-05-10T08:58:21.672Z,17.73
2019-05-10T09:01:01.376Z,19.40
2019-05-10T09:03:22.708Z,17.83
2019-05-10T09:05:53.303Z,19.37
2019-05-10T09:08:27.350Z,18.73
2019-05-10T09:10:55.060Z,19.60
2019-05-10T09:13:28.672Z,17.13
2019-05-10T09:15:57.168Z,18.07
2019-05-10T09:18:26.985Z,16.70
2019-05-10T09:21:00.398Z,16.43
2019-05-10T09:23:28.021Z,16.17
2019-05-10T09:26:03.576Z,16.33
2019-05-10T09:28:32.086Z,18.00
2019-05-10T09:31:17.426Z,14.17
2019-05-10T09:33:32.983Z,9.57
2019-05-10T09:36:03.128Z,11.67
2019-05-10T09:38:39.085Z,11.20
2019-05-10T09:41:05.705Z,10.47
2019-05-10T09:43:40.519Z,13.73
2019-05-10T09:46:06.369Z,13.30
2019-05-10T09:48:36.246Z,15.17
2019-05-10T09:51:06.481Z,14.70
2019-05-10T09:53:38.281Z,17.07
2019-05-10T09:56:08.546Z,17.73
2019-05-10T09:58:38.979Z,16.67
2019-05-10T10:01:17.790Z,20.87
2019-05-10T10:03:43.696Z,20.03
2019-05-10T10:06:12.507Z,20.57
2019-05-10T10:08:43.418Z,18.00
2019-05-10T10:11:16.406Z,19.50
2019-05-10T10:13:50.148Z,20.83
2019-05-10T10:16:19.850Z,19.43
2019-05-10T10:18:49.865Z,16.70
2019-05-10T10:21:30.503Z,18.00
2019-05-10T10:23:51.582Z,18.73
2019-05-10T10:26:22.490Z,18.67
2019-05-10T10:28:55.183Z,18.33
2019-05-10T10:31:29.033Z,16.60
2019-05-10T10:34:00.401Z,17.83
2019-05-10T10:36:28.670Z,19.33
2019-05-10T10:38:59.626Z,16.57
2019-05-10T10:41:31.880Z,16.27
2019-05-10T10:44:01.587Z,15.87
2019-05-10T10:46:34.565Z,17.87
2019-05-10T10:49:05.366Z,17.60
2019-05-10T10:51:35.203Z,18.10
2019-05-10T10:54:07.420Z,16.03
2019-05-10T10:56:38.442Z,16.50
2019-05-10T10:59:08.711Z,16.83
2019-05-10T11:01:49.511Z,16.60
2019-05-10T11:04:10.011Z,29.60
2019-05-10T11:06:40.131Z,46.57
2019-05-10T11:09:10.260Z,40.83
2019-05-10T11:11:44.497Z,31.60
2019-05-10T11:14:12.292Z,23.53
2019-05-10T11:16:46.659Z,18.60
2019-05-10T11:19:15.732Z,26.13
2019-05-10T11:21:45.740Z,30.07
2019-05-10T11:24:22.427Z,24.27
2019-05-10T11:26:47.501Z,22.17
2019-05-10T11:29:25.322Z,25.77
2019-05-10T11:32:10.373Z,24.13
2019-05-10T11:34:21.666Z,23.50
2019-05-10T11:36:52.088Z,22.53
2019-05-10T11:39:26.480Z,21.50
2019-05-10T11:42:02.401Z,22.67
2019-05-10T11:44:26.124Z,23.67
2019-05-10T11:46:57.313Z,24.83
2019-05-10T11:49:27.377Z,21.40
2019-05-10T11:51:58.898Z,23.53
2019-05-10T11:54:31.689Z,21.83
2019-05-10T11:57:06.578Z,24.03
2019-05-10T11:59:36.987Z,33.87
2019-05-10T12:02:09.437Z,25.90
2019-05-10T12:04:39.547Z,23.93
2019-05-10T12:07:09.805Z,26.30
2019-05-10T12:09:42.444Z,26.20
2019-05-10T12:12:12.480Z,21.87
2019-05-10T12:14:46.144Z,26.33
2019-05-10T12:17:14.563Z,21.27
2019-05-10T12:19:50.306Z,17.37
2019-05-10T12:22:16.242Z,17.57
2019-05-10T12:25:00.366Z,18.40
2019-05-10T12:27:25.760Z,16.03
2019-05-10T12:29:55.487Z,16.07
2019-05-10T12:32:21.433Z,14.90
2019-05-10T12:34:56.359Z,27.77
2019-05-10T12:37:23.288Z,18.23
2019-05-10T12:39:54.937Z,18.07
2019-05-10T12:42:25.213Z,16.23
2019-05-10T12:44:56.086Z,17.67
2019-05-10T12:47:26.515Z,15.10
2019-05-10T12:50:01.916Z,18.60
2019-05-10T12:52:28.892Z,18.80
2019-05-10T12:55:00.080Z,17.43
2019-05-10T12:57:30.347Z,18.13
2019-05-10T13:00:00.272Z,18.60
2019-05-10T13:02:30.183Z,18.57
2019-05-10T13:05:00.418Z,18.90
2019-05-10T13:07:30.270Z,16.80
2019-05-10T13:10:03.651Z,19.43
2019-05-10T13:12:36.749Z,20.47
2019-05-10T13:15:04.363Z,20.23
2019-05-10T13:17:34.584Z,18.60
2019-05-10T13:20:07.664Z,21.73
2019-05-10T13:22:39.529Z,25.57
2019-05-10T13:25:09.834Z,23.13
2019-05-10T13:27:40.165Z,25.93
2019-05-10T13:30:10.903Z,23.17
2019-05-10T13:32:40.975Z,23.73
2019-05-10T13:35:11.564Z,26.93
2019-05-10T13:37:41.558Z,25.47
2019-05-10T13:40:11.789Z,25.23
2019-05-10T13:42:43.815Z,26.13
2019-05-10T13:45:14.050Z,25.50
2019-05-10T13:47:44.077Z,23.50
2019-05-10T13:50:15.118Z,26.17
2019-05-10T13:52:45.257Z,27.57
2019-05-10T13:55:15.317Z,28.77
2019-05-10T13:57:45.468Z,28.33
2019-05-10T14:00:16.938Z,28.33
2019-05-10T14:02:47.101Z,26.63
2019-05-10T14:05:19.815Z,24.70
2019-05-10T14:07:51.771Z,24.97
2019-05-10T14:10:23.378Z,24.80
2019-05-10T14:12:56.283Z,28.73
2019-05-10T14:15:24.710Z,26.50
2019-05-10T14:17:54.715Z,31.10
2019-05-10T14:20:34.964Z,29.63
2019-05-10T14:23:11.852Z,30.00
2019-05-10T14:25:58.966Z,30.83
2019-05-10T14:28:36.272Z,29.53
2019-05-10T14:31:12.420Z,31.27
2019-05-10T14:33:49.605Z,28.13
2019-05-10T14:36:14.491Z,25.87
2019-05-10T14:38:47.347Z,23.77
2019-05-10T14:41:16.663Z,25.53
2019-05-10T14:43:46.695Z,24.03
2019-05-10T14:46:16.908Z,24.27
2019-05-10T14:48:48.552Z,26.20
2019-05-10T14:51:18.879Z,26.57
2019-05-10T14:53:50.439Z,27.70
2019-05-10T14:56:20.385Z,26.47
2019-05-10T14:58:50.647Z,24.60
2019-05-10T15:01:20.226Z,26.97
2019-05-10T15:03:51.887Z,45.93
2019-05-10T15:06:21.941Z,38.23
2019-05-10T15:08:53.700Z,28.73
2019-05-10T15:11:26.576Z,33.10
2019-05-10T15:13:55.406Z,29.20
2019-05-10T15:16:27.635Z,24.33
2019-05-10T15:18:56.218Z,27.90
2019-05-10T15:21:30.643Z,33.00
2019-05-10T15:24:03.024Z,25.73
2019-05-10T15:26:37.453Z,24.63
2019-05-10T15:29:22.372Z,22.43
2019-05-10T15:32:05.314Z,25.00
2019-05-10T15:35:06.534Z,49.63
2019-05-10T15:37:30.932Z,51.87
2019-05-10T15:40:06.259Z,29.23
2019-05-10T15:42:46.652Z,42.03
2019-05-10T15:45:22.584Z,28.20
2019-05-10T15:47:57.460Z,27.43
2019-05-10T15:50:32.519Z,26.23
2019-05-10T15:52:59.227Z,25.40
2019-05-10T15:55:29.322Z,23.53
2019-05-10T15:58:00.206Z,22.87
2019-05-10T16:00:37.361Z,23.30
2019-05-10T16:03:04.332Z,21.43
2019-05-10T16:05:43.503Z,20.07
2019-05-10T16:08:08.123Z,23.80
2019-05-10T16:10:40.938Z,24.60
2019-05-10T16:13:14.624Z,22.80
2019-05-10T16:15:42.794Z,21.23
2019-05-10T16:18:15.713Z,24.10
2019-05-10T16:20:46.574Z,20.77
2019-05-10T16:23:19.671Z,20.53
2019-05-10T16:25:50.104Z,23.60
2019-05-10T16:28:20.887Z,22.50
2019-05-10T16:30:51.772Z,20.67
2019-05-10T16:33:21.999Z,22.90
2019-05-10T16:35:52.042Z,20.00
2019-05-10T16:38:22.330Z,18.53
2019-05-10T16:40:58.475Z,27.30
2019-05-10T16:43:24.782Z,19.20
2019-05-10T16:45:57.107Z,20.33
2019-05-10T16:48:28.332Z,19.97
2019-05-10T16:51:03.677Z,20.93
2019-05-10T16:53:31.495Z,19.63
2019-05-10T16:56:01.742Z,18.67
2019-05-10T16:58:32.999Z,21.77
2019-05-10T17:01:03.105Z,19.97
2019-05-10T17:03:33.350Z,21.13
2019-05-10T17:06:05.727Z,19.27
2019-05-10T17:08:38.819Z,17.63
2019-05-10T17:11:10.433Z,19.47
2019-05-10T17:13:41.564Z,19.77
2019-05-10T17:16:21.019Z,21.50
2019-05-10T17:18:55.370Z,19.80
2019-05-10T17:21:22.895Z,22.43
2019-05-10T17:23:53.113Z,20.33
2019-05-10T17:26:23.239Z,21.70
2019-05-10T17:28:53.346Z,22.67
2019-05-10T17:31:23.579Z,23.40
2019-05-10T17:33:53.380Z,25.60
2019-05-10T17:36:23.400Z,23.77
2019-05-10T17:38:55.482Z,26.83
2019-05-10T17:41:26.971Z,25.40
2019-05-10T17:44:04.735Z,25.40
2019-05-10T17:46:34.842Z,26.67
2019-05-10T17:49:04.458Z,24.77
2019-05-10T17:51:34.346Z,29.77
2019-05-10T17:54:04.768Z,28.73
2019-05-10T17:56:38.717Z,28.43
2019-05-10T17:59:12.018Z,32.13
2019-05-10T18:01:42.699Z,30.00
2019-05-10T18:04:12.299Z,32.87
2019-05-10T18:06:53.600Z,31.40
2019-05-10T18:09:25.377Z,33.17
2019-05-10T18:11:55.460Z,34.70
2019-05-10T18:14:29.563Z,32.47
2019-05-10T18:16:59.229Z,35.27
2019-05-10T18:19:29.888Z,37.90
2019-05-10T18:22:06.204Z,44.87
2019-05-10T18:24:36.358Z,49.40
2019-05-10T18:27:05.191Z,53.03
2019-05-10T18:29:35.213Z,52.27
2019-05-10T18:32:10.510Z,61.83
2019-05-10T18:34:40.037Z,59.97
2019-05-10T18:37:15.879Z,56.40
2019-05-10T18:39:47.327Z,53.70
2019-05-10T18:42:18.842Z,56.43
2019-05-10T18:44:51.879Z,50.70
2019-05-10T18:47:18.180Z,53.73
2019-05-10T18:49:48.236Z,51.53
2019-05-10T18:52:18.328Z,55.47
2019-05-10T18:54:48.575Z,58.13
2019-05-10T18:57:19.450Z,59.00
2019-05-10T18:59:49.219Z,65.57
2019-05-10T19:02:19.939Z,61.20
2019-05-10T19:04:52.136Z,61.67
2019-05-10T19:07:23.552Z,53.33
2019-05-10T19:09:53.583Z,56.87
2019-05-10T19:12:27.457Z,49.43
2019-05-10T19:15:02.165Z,49.87
2019-05-10T19:17:30.725Z,51.13
2019-05-10T19:20:00.700Z,52.13
2019-05-10T19:22:30.712Z,62.17
2019-05-10T19:25:10.100Z,60.70
2019-05-10T19:27:38.911Z,59.20
2019-05-10T19:30:08.220Z,65.53
2019-05-10T19:32:42.092Z,74.83
2019-05-10T19:35:14.210Z,72.00
2019-05-10T19:37:44.120Z,61.97
2019-05-10T19:40:15.301Z,73.37
2019-05-10T19:42:48.867Z,90.10
2019-05-10T19:45:19.287Z,87.70
2019-05-10T19:47:49.962Z,87.00
2019-05-10T19:50:24.298Z,107.73
2019-05-10T19:52:58.515Z,147.77
2019-05-10T19:55:32.817Z,102.47
2019-05-10T19:58:05.990Z,85.63
2019-05-10T20:00:40.309Z,76.80
2019-05-10T20:03:11.516Z,71.13
2019-05-10T20:05:41.029Z,69.50
2019-05-10T20:08:11.046Z,69.93
2019-05-10T20:10:40.953Z,65.33
2019-05-10T20:13:10.859Z,63.27
2019-05-10T20:15:41.496Z,58.70
2019-05-10T20:18:11.706Z,60.63
2019-05-10T20:20:43.796Z,65.63
2019-05-10T20:23:14.309Z,60.93
2019-05-10T20:25:44.436Z,58.03
2019-05-10T20:28:16.458Z,61.63
2019-05-10T20:30:48.148Z,68.23
2019-05-10T20:33:18.041Z,64.07
2019-05-10T20:35:48.158Z,87.90
2019-05-10T20:38:18.087Z,118.23
2019-05-10T20:40:48.214Z,117.47
2019-05-10T20:43:18.077Z,112.20
2019-05-10T20:45:48.037Z,114.00
2019-05-10T20:48:17.932Z,117.17
2019-05-10T20:50:47.850Z,110.63
2019-05-10T20:53:17.970Z,113.87
2019-05-10T20:55:48.008Z,114.90
2019-05-10T20:58:18.139Z,102.50
2019-05-10T21:00:48.309Z,103.23
2019-05-10T21:03:18.547Z,104.40
2019-05-10T21:05:48.668Z,103.10
2019-05-10T21:08:18.785Z,103.97
2019-05-10T21:10:48.793Z,106.63
2019-05-10T21:13:18.321Z,104.90
2019-05-10T21:15:48.211Z,100.07
2019-05-10T21:18:18.111Z,100.10
2019-05-10T21:20:48.138Z,97.87
2019-05-10T21:23:18.046Z,94.00
2019-05-10T21:25:47.561Z,88.90
2019-05-10T21:28:17.467Z,91.17
2019-05-10T21:30:49.279Z,82.27
2019-05-10T21:33:19.550Z,89.53
2019-05-10T21:35:52.007Z,90.07
2019-05-10T21:38:32.421Z,92.87
2019-05-10T21:40:55.909Z,93.93
2019-05-10T21:43:28.831Z,98.47
2019-05-10T21:45:59.274Z,96.30
2019-05-10T21:48:29.469Z,94.83
2019-05-10T21:51:00.119Z,92.40
2019-05-10T21:53:31.396Z,88.73
2019-05-10T21:56:01.548Z,89.27
2019-05-10T21:58:32.554Z,87.60
2019-05-10T22:01:04.230Z,87.63
2019-05-10T22:03:34.789Z,87.17
2019-05-10T22:06:04.988Z,81.87
2019-05-10T22:08:48.404Z,84.03
2019-05-10T22:11:07.920Z,84.50
2019-05-10T22:13:39.261Z,80.77
2019-05-10T22:16:09.869Z,75.33
2019-05-10T22:18:39.944Z,78.70
2019-05-10T22:21:09.923Z,76.70
2019-05-10T22:23:40.140Z,75.40
2019-05-10T22:26:11.858Z,77.40
2019-05-10T22:28:41.804Z,73.97
2019-05-10T22:31:11.844Z,73.73
2019-05-10T22:33:41.797Z,71.47
2019-05-10T22:36:11.981Z,73.60
2019-05-10T22:38:42.962Z,73.70
2019-05-10T22:41:13.029Z,83.93
2019-05-10T22:43:43.408Z,83.40
2019-05-10T22:46:13.763Z,81.07
2019-05-10T22:48:43.983Z,75.13
2019-05-10T22:51:13.604Z,74.63
2019-05-10T22:53:43.853Z,74.27
2019-05-10T22:56:14.263Z,76.00
2019-05-10T22:58:44.352Z,79.53
2019-05-10T23:01:14.468Z,72.53
2019-05-10T23:03:44.588Z,72.33
2019-05-10T23:06:14.816Z,71.37
2019-05-10T23:08:45.763Z,68.90
2019-05-10T23:11:15.770Z,74.30
2019-05-10T23:13:45.887Z,71.70
2019-05-10T23:16:17.824Z,68.07
2019-05-10T23:18:47.616Z,75.10
2019-05-10T23:21:17.830Z,72.13
2019-05-10T23:23:47.645Z,68.00
2019-05-10T23:26:17.810Z,69.83
2019-05-10T23:28:47.709Z,66.17
2019-05-10T23:31:17.760Z,71.10
2019-05-10T23:33:47.729Z,68.50
2019-05-10T23:36:18.897Z,70.23
2019-05-10T23:38:52.178Z,73.97
2019-05-10T23:41:20.546Z,66.80
2019-05-10T23:43:50.476Z,71.80
2019-05-10T23:46:20.397Z,70.63
2019-05-10T23:48:50.486Z,73.37
2019-05-10T23:51:20.629Z,75.17
2019-05-10T23:53:50.848Z,77.13
2019-05-10T23:56:20.768Z,72.77
2019-05-10T23:58:50.751Z,74.17
